Time;durP1;ratioP1;P1;durP2;ratioP2;P2;SDS_P1;SDS_P2;PMS_P1;PMS_P2;Temp;Humidity;BMP_temperature;BMP_pressure;BME280_temperature;BME280_humidity;BME280_pressure;Samples;Min_cycle;Max_cycle;Signal;HPM_P1;HPM_P2
2023/08/23 00:01:52;;;;;;;4.53;3.50;;;22.40;66.90;;;;;;5013340;28;20497;-52
2023/08/23 00:04:19;;;;;;;5.00;3.80;;;22.40;67.10;;;;;;5013380;28;20029;-54
2023/08/23 00:06:45;;;;;;;6.10;3.83;;;22.40;67.40;;;;;;5013797;28;20050;-52
2023/08/23 00:09:10;;;;;;;5.65;4.05;;;22.30;67.30;;;;;;5013429;28;20031;-52
2023/08/23 00:11:36;;;;;;;4.63;3.50;;;22.30;67.30;;;;;;5013171;28;20030;-52
2023/08/23 00:14:02;;;;;;;4.28;3.55;;;22.30;67.40;;;;;;5013449;28;20084;-49
2023/08/23 00:16:28;;;;;;;5.80;4.10;;;22.20;67.60;;;;;;5013757;28;20033;-53
2023/08/23 00:18:54;;;;;;;6.22;3.83;;;22.20;67.70;;;;;;5012963;28;20026;-50
2023/08/23 00:21:19;;;;;;;5.65;4.03;;;22.10;67.90;;;;;;5013155;28;20474;-50
2023/08/23 00:23:45;;;;;;;6.18;4.40;;;22.10;67.90;;;;;;5013141;28;20083;-54
2023/08/23 00:26:13;;;;;;;5.38;4.20;;;22.10;68.10;;;;;;5012969;28;20074;-52
2023/08/23 00:28:40;;;;;;;6.15;3.97;;;22.10;68.30;;;;;;5013156;28;20084;-52
2023/08/23 00:31:05;;;;;;;4.72;3.78;;;22.00;68.40;;;;;;5012919;28;20030;-52
2023/08/23 00:33:31;;;;;;;4.75;4.13;;;22.00;68.60;;;;;;5012862;28;20038;-51
2023/08/23 00:35:57;;;;;;;5.88;4.25;;;22.00;68.80;;;;;;5013021;28;20111;-51
2023/08/23 00:38:23;;;;;;;7.57;4.35;;;21.90;68.90;;;;;;5012966;28;20366;-51
2023/08/23 00:40:48;;;;;;;6.00;3.95;;;21.90;69.00;;;;;;5013565;28;20026;-52
2023/08/23 00:43:14;;;;;;;5.45;3.95;;;21.90;69.10;;;;;;5013120;28;20041;-52
2023/08/23 00:45:41;;;;;;;5.50;3.80;;;21.90;69.10;;;;;;5013628;28;20030;-50
2023/08/23 00:48:09;;;;;;;4.18;3.50;;;21.80;69.10;;;;;;5016289;28;20033;-50
2023/08/23 00:50:35;;;;;;;4.75;3.88;;;21.80;69.20;;;;;;5016433;28;20029;-54
2023/08/23 00:53:02;;;;;;;7.00;4.20;;;21.80;69.20;;;;;;5016262;28;20083;-51
2023/08/23 00:55:28;;;;;;;6.20;3.63;;;21.80;69.20;;;;;;5016436;28;20397;-50
2023/08/23 00:57:55;;;;;;;5.00;3.35;;;21.70;69.20;;;;;;5016362;28;20036;-52
2023/08/23 01:00:21;;;;;;;5.95;3.67;;;21.80;69.20;;;;;;5015599;28;20036;-51
2023/08/23 01:02:47;;;;;;;5.95;3.85;;;21.80;69.20;;;;;;5016038;28;20049;-52
2023/08/23 01:05:13;;;;;;;5.47;4.20;;;21.70;69.00;;;;;;5015958;28;20030;-51
2023/08/23 01:08:06;;;;;;;6.75;3.80;;;21.70;68.90;;;;;;5015952;28;20026;-53
2023/08/23 01:11:09;;;;;;;5.72;3.90;;;21.80;68.60;;;;;;5016055;28;20117;-51
2023/08/23 01:13:50;;;;;;;6.82;3.80;;;21.70;68.40;;;;;;5016051;28;20049;-52
2023/08/23 01:16:19;;;;;;;4.35;3.50;;;21.70;68.30;;;;;;5015970;28;20026;-50
2023/08/23 01:18:45;;;;;;;5.70;3.63;;;21.70;68.40;;;;;;5016038;28;20568;-51
2023/08/23 01:21:18;;;;;;;5.50;3.40;;;21.60;68.30;;;;;;5015993;28;20014;-53
2023/08/23 01:23:44;;;;;;;4.85;3.70;;;21.60;68.30;;;;;;5015806;28;20037;-53
2023/08/23 01:26:10;;;;;;;4.97;3.70;;;21.60;68.40;;;;;;5015588;28;20077;-50
2023/08/23 01:28:36;;;;;;;5.07;3.45;;;21.50;68.40;;;;;;5015957;28;20092;-52
2023/08/23 01:31:03;;;;;;;4.45;3.47;;;21.50;68.50;;;;;;5015574;28;20026;-53
2023/08/23 01:33:39;;;;;;;4.47;3.38;;;21.50;68.60;;;;;;5015611;28;20041;-52
2023/08/23 01:36:27;;;;;;;8.00;4.20;;;21.40;68.50;;;;;;5015849;28;20026;-53
2023/08/23 01:38:55;;;;;;;5.45;3.70;;;21.40;68.60;;;;;;5015680;28;20022;-47
2023/08/23 01:41:22;;;;;;;5.20;3.67;;;21.30;68.50;;;;;;5015426;28;20018;-53
2023/08/23 01:43:47;;;;;;;3.58;3.03;;;21.30;68.50;;;;;;5015126;28;20036;-51
2023/08/23 01:46:13;;;;;;;3.80;3.35;;;21.30;68.70;;;;;;5015466;28;20444;-53
2023/08/23 01:48:39;;;;;;;3.80;3.25;;;21.30;68.70;;;;;;5014713;28;20022;-53
2023/08/23 01:51:06;;;;;;;4.05;3.53;;;21.20;68.80;;;;;;5014999;28;20033;-53
2023/08/23 01:53:32;;;;;;;4.22;3.30;;;21.20;68.80;;;;;;5014935;28;20434;-51
2023/08/23 01:55:59;;;;;;;3.92;3.50;;;21.20;68.80;;;;;;5015334;28;20069;-51
2023/08/23 01:58:25;;;;;;;4.38;3.65;;;21.20;68.80;;;;;;5014315;28;20473;-52
2023/08/23 02:00:51;;;;;;;5.90;3.63;;;21.20;68.90;;;;;;5015044;28;20083;-51
2023/08/23 02:03:18;;;;;;;6.07;3.78;;;21.10;68.90;;;;;;5014904;28;20125;-51
2023/08/23 02:05:44;;;;;;;5.32;3.45;;;21.10;68.90;;;;;;5015313;28;20034;-52
2023/08/23 02:08:09;;;;;;;5.10;3.60;;;21.10;69.00;;;;;;5014778;28;20509;-53
2023/08/23 02:10:35;;;;;;;4.13;3.20;;;21.10;68.90;;;;;;5014581;28;20040;-53
2023/08/23 02:13:04;;;;;;;5.18;3.33;;;21.10;68.80;;;;;;5015018;28;20104;-50
2023/08/23 02:15:30;;;;;;;4.00;3.20;;;21.10;68.80;;;;;;5014551;28;20014;-52
2023/08/23 02:17:55;;;;;;;5.63;3.58;;;21.10;68.60;;;;;;5014836;28;20030;-53
2023/08/23 02:20:21;;;;;;;5.57;3.40;;;21.00;68.50;;;;;;5014900;28;20425;-51
2023/08/23 02:22:47;;;;;;;4.95;3.42;;;21.00;68.40;;;;;;5014354;28;20085;-52
2023/08/23 02:25:13;;;;;;;4.63;3.47;;;21.00;68.30;;;;;;5014534;28;20046;-53
2023/08/23 02:27:38;;;;;;;5.22;3.47;;;20.90;68.20;;;;;;5014800;28;20026;-51
2023/08/23 02:30:05;;;;;;;6.13;3.63;;;20.90;68.10;;;;;;5014674;28;20493;-52
2023/08/23 02:32:30;;;;;;;4.63;3.63;;;20.90;68.00;;;;;;5014462;28;20042;-53
2023/08/23 02:34:56;;;;;;;4.97;3.42;;;20.90;68.00;;;;;;5014191;28;20034;-52
2023/08/23 02:37:22;;;;;;;5.30;3.67;;;20.90;68.00;;;;;;5014152;28;20074;-51
2023/08/23 02:39:47;;;;;;;6.10;3.30;;;20.90;68.10;;;;;;5014371;28;20030;-51
2023/08/23 02:42:13;;;;;;;3.60;3.08;;;20.80;68.00;;;;;;5014347;28;20064;-52
2023/08/23 02:44:38;;;;;;;4.97;3.33;;;20.80;67.90;;;;;;5014008;28;20474;-51
2023/08/23 02:47:04;;;;;;;3.97;3.33;;;20.80;67.90;;;;;;5014055;28;20033;-52
2023/08/23 02:49:30;;;;;;;4.15;3.17;;;20.80;67.90;;;;;;5014029;28;20026;-51
2023/08/23 02:51:55;;;;;;;4.47;3.30;;;20.80;67.90;;;;;;5014186;28;20096;-52
2023/08/23 02:54:21;;;;;;;4.57;3.10;;;20.80;67.90;;;;;;5014129;28;20527;-50
2023/08/23 02:56:46;;;;;;;4.05;3.10;;;20.80;67.90;;;;;;5014225;28;20017;-53
2023/08/23 02:59:13;;;;;;;6.15;3.65;;;20.80;67.80;;;;;;5012968;28;20030;-53
2023/08/23 03:01:38;;;;;;;3.85;2.85;;;20.80;67.90;;;;;;5012780;28;20397;-50
2023/08/23 03:04:04;;;;;;;3.72;3.00;;;20.80;67.90;;;;;;5013998;28;20125;-52
2023/08/23 03:06:29;;;;;;;5.85;3.67;;;20.80;67.90;;;;;;5013982;28;20160;-53
2023/08/23 03:08:55;;;;;;;4.60;2.97;;;20.80;67.90;;;;;;5013238;28;20065;-52
2023/08/23 03:11:21;;;;;;;4.05;3.08;;;20.80;68.10;;;;;;5013778;28;20048;-50
2023/08/23 03:13:46;;;;;;;4.32;3.10;;;20.80;68.00;;;;;;5013790;28;20044;-52
2023/08/23 03:16:12;;;;;;;3.50;3.10;;;20.90;68.00;;;;;;5014097;28;20509;-51
2023/08/23 03:18:37;;;;;;;4.20;2.83;;;20.90;68.00;;;;;;5013750;28;20508;-53
2023/08/23 03:21:03;;;;;;;4.55;3.53;;;20.80;67.90;;;;;;5013637;28;20026;-52
2023/08/23 03:23:29;;;;;;;3.58;3.10;;;20.80;67.90;;;;;;5013713;28;20041;-52
2023/08/23 03:25:54;;;;;;;4.82;3.03;;;20.80;67.90;;;;;;5013479;28;20046;-51
2023/08/23 03:28:20;;;;;;;5.70;3.20;;;20.90;67.90;;;;;;5013182;28;20030;-54
2023/08/23 03:30:45;;;;;;;4.22;2.92;;;20.90;67.90;;;;;;5013412;28;20026;-50
2023/08/23 03:33:11;;;;;;;4.38;2.92;;;20.90;67.90;;;;;;5013429;28;20034;-52
2023/08/23 03:35:37;;;;;;;3.30;3.00;;;20.90;67.80;;;;;;5013599;28;20033;-52
2023/08/23 03:38:03;;;;;;;4.55;3.00;;;20.90;67.80;;;;;;5013422;28;20588;-49
2023/08/23 03:40:28;;;;;;;3.90;3.30;;;21.00;67.80;;;;;;5013542;28;20030;-52
2023/08/23 03:42:54;;;;;;;4.68;2.78;;;21.00;67.70;;;;;;5013415;28;20042;-53
2023/08/23 03:45:19;;;;;;;5.43;2.90;;;21.00;67.60;;;;;;5013431;28;20022;-52
2023/08/23 03:47:45;;;;;;;4.05;2.55;;;21.10;67.50;;;;;;5013633;28;20092;-53
2023/08/23 03:50:17;;;;;;;5.13;3.03;;;21.10;67.60;;;;;;5013282;28;20049;-53
2023/08/23 03:52:54;;;;;;;3.80;3.10;;;21.10;67.60;;;;;;5012696;28;20030;-52
2023/08/23 03:55:23;;;;;;;3.90;3.20;;;21.20;67.50;;;;;;5012641;28;20076;-53
2023/08/23 03:57:50;;;;;;;4.07;2.88;;;21.20;67.50;;;;;;5012435;28;20129;-53
2023/08/23 04:00:20;;;;;;;3.17;2.70;;;21.20;67.50;;;;;;5012084;28;20026;-52
2023/08/23 04:02:48;;;;;;;4.18;2.80;;;21.30;67.40;;;;;;5010234;28;20041;-51
2023/08/23 04:05:14;;;;;;;3.50;3.03;;;21.40;67.30;;;;;;5012184;28;20034;-51
2023/08/23 04:07:40;;;;;;;4.47;3.13;;;21.40;67.00;;;;;;5012415;28;20041;-52
2023/08/23 04:10:06;;;;;;;4.53;2.90;;;21.50;67.00;;;;;;5012028;28;20025;-53
2023/08/23 04:12:32;;;;;;;4.30;2.72;;;21.50;67.00;;;;;;5011739;28;20049;-51
2023/08/23 04:14:58;;;;;;;4.53;2.90;;;21.60;67.10;;;;;;5012947;28;20390;-53
2023/08/23 04:17:26;;;;;;;5.03;2.80;;;21.70;67.30;;;;;;5012996;28;20371;-51
2023/08/23 04:19:52;;;;;;;4.80;2.88;;;21.70;67.40;;;;;;5013398;28;20088;-52
2023/08/23 04:22:18;;;;;;;3.80;2.67;;;21.80;67.40;;;;;;5016104;28;20049;-52
2023/08/23 04:24:43;;;;;;;3.45;2.90;;;21.80;67.40;;;;;;5015582;28;20374;-51
2023/08/23 04:27:09;;;;;;;4.50;3.17;;;21.90;67.30;;;;;;5015392;28;20049;-51
2023/08/23 04:29:34;;;;;;;3.53;2.72;;;22.00;67.10;;;;;;5015672;28;20029;-51
2023/08/23 04:32:00;;;;;;;3.83;2.67;;;22.00;67.10;;;;;;5015819;28;20034;-53
2023/08/23 04:34:26;;;;;;;3.88;2.60;;;22.10;67.20;;;;;;5014067;28;20026;-52
2023/08/23 04:36:52;;;;;;;3.08;2.65;;;22.10;67.20;;;;;;5014073;28;20048;-53
2023/08/23 04:39:17;;;;;;;3.85;3.20;;;22.10;67.20;;;;;;5016164;28;20076;-53
2023/08/23 04:41:43;;;;;;;3.88;3.05;;;22.20;67.40;;;;;;5016460;28;20062;-51
2023/08/23 04:44:08;;;;;;;3.47;2.88;;;22.20;67.40;;;;;;5015988;28;20113;-52
2023/08/23 04:46:34;;;;;;;3.70;3.00;;;22.30;67.50;;;;;;5016016;28;20064;-52
2023/08/23 04:49:00;;;;;;;4.18;2.88;;;22.40;67.50;;;;;;5015884;28;20034;-50
2023/08/23 04:51:26;;;;;;;3.35;2.92;;;22.50;67.40;;;;;;5016777;28;20470;-50
2023/08/23 04:53:52;;;;;;;3.30;3.00;;;22.60;67.50;;;;;;5016700;28;20044;-50
2023/08/23 04:56:17;;;;;;;4.88;3.30;;;22.70;67.30;;;;;;5016622;28;20022;-52
2023/08/23 04:58:43;;;;;;;4.40;3.03;;;22.70;67.00;;;;;;5016354;28;20603;-53
2023/08/23 05:01:09;;;;;;;4.10;3.10;;;22.80;67.00;;;;;;5015838;28;20048;-53
2023/08/23 05:03:35;;;;;;;5.07;2.85;;;22.80;67.00;;;;;;5015103;28;20029;-53
2023/08/23 05:06:02;;;;;;;3.60;2.95;;;22.90;67.20;;;;;;5016190;28;20038;-51
2023/08/23 05:08:29;;;;;;;3.25;2.70;;;22.90;67.10;;;;;;5014361;28;20373;-53
2023/08/23 05:10:56;;;;;;;4.85;2.83;;;23.00;66.80;;;;;;5016492;28;20121;-53
2023/08/23 05:13:22;;;;;;;3.30;3.00;;;23.10;66.60;;;;;;5015759;28;20042;-50
2023/08/23 05:15:54;;;;;;;5.45;3.28;;;23.20;66.60;;;;;;5015222;28;20389;-50
2023/08/23 05:18:21;;;;;;;3.55;2.78;;;23.40;66.10;;;;;;5015340;28;20026;-50
2023/08/23 05:20:52;;;;;;;3.40;2.63;;;23.40;65.90;;;;;;5015074;28;20022;-52
2023/08/23 05:23:18;;;;;;;4.35;2.88;;;23.50;65.70;;;;;;5016069;28;20029;-52
2023/08/23 05:25:44;;;;;;;3.30;2.45;;;23.60;65.50;;;;;;5013816;28;20065;-54
2023/08/23 05:28:09;;;;;;;3.72;2.55;;;23.60;65.30;;;;;;5013839;28;20040;-51
2023/08/23 05:30:39;;;;;;;2.90;2.55;;;23.70;65.40;;;;;;5010944;28;20504;-52
2023/08/23 05:33:06;;;;;;;3.28;2.78;;;24.00;65.20;;;;;;5012012;28;20049;-50
2023/08/23 05:35:32;;;;;;;4.22;2.47;;;24.10;64.30;;;;;;5013920;28;20033;-49
2023/08/23 05:37:58;;;;;;;3.15;2.50;;;24.30;63.90;;;;;;5013614;28;20425;-52
2023/08/23 05:40:24;;;;;;;5.47;2.40;;;24.30;63.50;;;;;;5013525;28;20306;-52
2023/08/23 05:42:49;;;;;;;4.40;2.60;;;24.30;63.40;;;;;;5013483;28;20034;-50
2023/08/23 05:45:15;;;;;;;4.47;2.80;;;24.30;63.50;;;;;;5012858;28;20021;-53
2023/08/23 05:47:40;;;;;;;4.65;2.45;;;24.30;63.20;;;;;;5014824;28;20045;-50
2023/08/23 05:50:06;;;;;;;4.05;2.30;;;24.30;62.90;;;;;;5009103;28;20491;-53
2023/08/23 05:52:32;;;;;;;3.60;2.70;;;24.30;62.90;;;;;;5012978;28;20034;-55
2023/08/23 05:54:58;;;;;;;2.85;2.42;;;24.30;62.70;;;;;;5012662;28;20032;-53
2023/08/23 05:57:23;;;;;;;3.33;2.42;;;24.30;62.80;;;;;;5011444;28;20033;-51
2023/08/23 05:59:49;;;;;;;4.07;2.85;;;24.30;62.70;;;;;;5012817;28;20037;-52
2023/08/23 06:02:14;;;;;;;5.18;2.83;;;24.30;62.70;;;;;;5013373;28;20037;-53
2023/08/23 06:04:40;;;;;;;4.63;2.60;;;24.30;62.70;;;;;;5013123;28;20022;-52
2023/08/23 06:07:06;;;;;;;3.45;2.50;;;24.20;62.90;;;;;;5014911;28;20048;-54
2023/08/23 06:09:33;;;;;;;3.63;3.08;;;24.20;63.10;;;;;;5014950;28;20026;-52
2023/08/23 06:11:59;;;;;;;3.00;2.47;;;24.30;63.30;;;;;;5013009;28;20461;-51
2023/08/23 06:14:25;;;;;;;3.35;2.50;;;24.30;63.40;;;;;;5011413;28;20036;-52
2023/08/23 06:16:51;;;;;;;5.07;2.80;;;24.30;63.00;;;;;;5009704;28;20085;-54
2023/08/23 06:19:16;;;;;;;4.90;2.40;;;24.40;63.00;;;;;;5016968;28;20373;-51
2023/08/23 06:21:42;;;;;;;3.75;2.33;;;24.40;62.80;;;;;;5005075;28;20084;-51
2023/08/23 06:24:09;;;;;;;3.42;2.15;;;24.50;62.40;;;;;;5003097;28;20034;-52
2023/08/23 06:26:34;;;;;;;6.85;2.88;;;24.60;61.70;;;;;;5003862;28;20462;-52
2023/08/23 06:29:00;;;;;;;3.25;2.58;;;24.50;61.80;;;;;;5011099;28;20176;-53
2023/08/23 06:31:26;;;;;;;3.35;2.60;;;24.60;61.70;;;;;;5013604;28;20108;-51
2023/08/23 06:33:51;;;;;;;3.63;2.60;;;24.60;61.70;;;;;;5012319;28;20041;-55
2023/08/23 06:36:17;;;;;;;3.10;2.80;;;24.50;61.40;;;;;;5000765;28;20022;-53
2023/08/23 06:38:43;;;;;;;3.05;2.45;;;24.50;61.70;;;;;;5006486;28;20032;-52
2023/08/23 06:41:08;;;;;;;5.05;2.50;;;24.40;61.90;;;;;;5004850;28;20017;-53
2023/08/23 06:43:34;;;;;;;4.00;2.55;;;24.40;62.20;;;;;;5009677;28;20034;-52
2023/08/23 06:46:02;;;;;;;2.60;2.40;;;24.40;62.80;;;;;;5005153;28;20037;-54
2023/08/23 06:48:28;;;;;;;3.78;2.40;;;24.50;63.00;;;;;;5008521;28;20030;-53
2023/08/23 06:50:54;;;;;;;4.18;2.47;;;24.60;62.50;;;;;;5007144;28;20091;-51
2023/08/23 06:53:20;;;;;;;5.65;3.38;;;24.70;62.20;;;;;;5007549;28;20523;-54
2023/08/23 06:55:46;;;;;;;4.70;3.65;;;24.80;62.20;;;;;;5001418;28;20037;-54
2023/08/23 06:58:11;;;;;;;3.85;3.15;;;24.80;62.20;;;;;;5009111;28;20489;-53
2023/08/23 07:00:37;;;;;;;4.00;2.90;;;24.80;62.30;;;;;;5011412;28;20026;-52
2023/08/23 07:03:03;;;;;;;2.97;2.55;;;24.90;62.40;;;;;;5008449;28;20032;-51
2023/08/23 07:05:29;;;;;;;3.10;2.70;;;24.90;62.50;;;;;;5009051;28;20117;-53
2023/08/23 07:07:55;;;;;;;4.60;3.10;;;25.00;62.70;;;;;;5009697;28;20100;-53
2023/08/23 07:10:20;;;;;;;4.57;3.25;;;25.00;62.60;;;;;;5006864;28;20033;-53
2023/08/23 07:12:46;;;;;;;4.55;3.13;;;25.10;62.40;;;;;;5005370;28;20097;-51
2023/08/23 07:15:12;;;;;;;5.20;3.30;;;25.10;62.80;;;;;;5010177;28;20470;-53
2023/08/23 07:17:38;;;;;;;4.15;3.33;;;25.20;61.70;;;;;;5008445;28;20029;-51
2023/08/23 07:20:05;;;;;;;5.90;3.90;;;25.20;61.60;;;;;;5001013;28;20026;-52
2023/08/23 07:22:30;;;;;;;4.82;3.28;;;25.20;61.50;;;;;;5000101;28;20138;-54
2023/08/23 07:24:56;;;;;;;5.38;3.60;;;25.20;61.60;;;;;;5002121;28;20045;-53
2023/08/23 07:27:21;;;;;;;5.10;3.67;;;25.20;61.90;;;;;;5002121;28;20033;-52
2023/08/23 07:29:47;;;;;;;5.03;3.60;;;25.20;61.50;;;;;;5004180;28;20030;-52
2023/08/23 07:32:13;;;;;;;6.40;4.15;;;25.20;61.40;;;;;;5010035;28;20191;-52
2023/08/23 07:34:39;;;;;;;4.05;3.60;;;25.10;61.60;;;;;;5012483;28;20057;-53
2023/08/23 07:37:06;;;;;;;4.43;3.97;;;25.20;61.60;;;;;;5008260;28;20041;-54
2023/08/23 07:39:31;;;;;;;6.10;3.92;;;25.20;61.50;;;;;;5005344;28;20022;-53
2023/08/23 07:41:57;;;;;;;7.07;4.25;;;25.10;61.80;;;;;;5000762;28;20045;-54
2023/08/23 07:44:23;;;;;;;5.85;3.72;;;25.10;62.00;;;;;;5007605;28;20044;-54
2023/08/23 07:46:48;;;;;;;4.68;3.92;;;25.00;62.10;;;;;;5000110;28;20044;-52
2023/08/23 07:49:14;;;;;;;5.63;3.72;;;25.00;62.30;;;;;;5002128;28;20029;-53
2023/08/23 07:51:40;;;;;;;6.30;4.10;;;25.00;61.90;;;;;;4999287;28;20021;-53
2023/08/23 07:54:07;;;;;;;6.50;4.05;;;25.00;61.60;;;;;;5001921;28;20037;-54
2023/08/23 07:56:33;;;;;;;5.53;4.22;;;25.00;61.60;;;;;;5007420;28;20522;-53
2023/08/23 07:58:59;;;;;;;5.32;3.95;;;24.90;61.70;;;;;;5001638;28;20033;-52
2023/08/23 08:01:24;;;;;;;5.53;3.80;;;24.80;61.60;;;;;;5002635;28;20462;-55
2023/08/23 08:03:51;;;;;;;6.07;3.75;;;24.80;61.70;;;;;;4996386;28;20042;-53
2023/08/23 08:06:17;;;;;;;7.50;3.92;;;24.70;61.80;;;;;;4993566;28;20101;-54
2023/08/23 08:08:43;;;;;;;4.75;3.60;;;24.70;61.80;;;;;;5002200;28;20037;-53
2023/08/23 08:11:12;;;;;;;4.72;3.60;;;24.70;61.70;;;;;;4998138;28;20026;-55
2023/08/23 08:13:38;;;;;;;5.00;3.60;;;24.70;61.50;;;;;;5002795;28;20761;-52
2023/08/23 08:16:11;;;;;;;5.18;3.78;;;24.60;61.50;;;;;;5003059;28;20081;-53
2023/08/23 08:18:37;;;;;;;4.68;3.30;;;24.70;61.60;;;;;;4999814;28;20538;-52
2023/08/23 08:21:04;;;;;;;6.15;3.72;;;24.60;61.30;;;;;;5006061;28;20048;-51
2023/08/23 08:23:30;;;;;;;5.07;3.50;;;24.60;61.30;;;;;;5006658;28;20477;-52
2023/08/23 08:25:56;;;;;;;4.38;3.40;;;24.60;61.20;;;;;;5003716;28;20099;-52
2023/08/23 08:28:22;;;;;;;3.50;3.10;;;24.60;61.00;;;;;;5007130;28;20061;-55
2023/08/23 08:30:48;;;;;;;5.13;3.33;;;24.60;60.60;;;;;;5004799;28;20034;-54
2023/08/23 08:33:14;;;;;;;4.95;3.38;;;24.70;60.80;;;;;;5008661;28;20037;-52
2023/08/23 08:35:39;;;;;;;4.57;3.35;;;24.70;61.00;;;;;;5005286;28;20036;-51
2023/08/23 08:38:06;;;;;;;6.47;4.10;;;24.70;61.00;;;;;;5006528;28;20032;-54
2023/08/23 08:40:32;;;;;;;6.70;4.32;;;24.80;61.20;;;;;;4998301;28;20029;-52
2023/08/23 08:42:59;;;;;;;6.20;4.82;;;24.80;60.80;;;;;;5008886;28;20040;-51
2023/08/23 08:45:24;;;;;;;4.18;3.47;;;24.90;61.00;;;;;;5002578;28;20041;-52
2023/08/23 08:47:51;;;;;;;4.32;3.65;;;24.90;61.00;;;;;;4998045;28;20026;-54
2023/08/23 08:50:17;;;;;;;4.53;3.58;;;25.00;60.90;;;;;;4997630;28;20053;-52
2023/08/23 08:52:49;;;;;;;3.83;3.30;;;25.00;60.60;;;;;;4998162;28;20041;-54
2023/08/23 08:55:15;;;;;;;4.32;3.17;;;25.10;60.30;;;;;;5005651;28;20037;-54
2023/08/23 08:57:43;;;;;;;6.45;3.10;;;25.10;60.20;;;;;;5003179;28;21605;-55
2023/08/23 09:00:09;;;;;;;3.63;3.00;;;25.10;60.30;;;;;;5002686;28;20465;-52
2023/08/23 09:02:37;;;;;;;3.22;2.80;;;25.20;60.10;;;;;;5001433;28;20037;-52
2023/08/23 09:05:05;;;;;;;4.22;3.22;;;25.20;60.00;;;;;;5003646;28;20504;-53
2023/08/23 09:07:31;;;;;;;4.82;3.42;;;25.20;60.20;;;;;;4996067;28;20045;-53
2023/08/23 09:09:57;;;;;;;3.28;3.00;;;25.20;60.50;;;;;;5002774;28;20034;-54
2023/08/23 09:12:23;;;;;;;3.67;2.92;;;25.10;60.50;;;;;;5007756;28;20026;-52
2023/08/23 09:14:49;;;;;;;5.95;3.30;;;25.10;60.50;;;;;;5005423;28;20511;-54
2023/08/23 09:17:15;;;;;;;3.35;3.03;;;25.10;60.30;;;;;;5006103;28;20018;-52
2023/08/23 09:19:41;;;;;;;4.40;2.80;;;25.10;60.00;;;;;;5006204;28;20374;-54
2023/08/23 09:22:07;;;;;;;4.50;3.00;;;25.00;59.70;;;;;;5007185;28;20026;-54
2023/08/23 09:24:33;;;;;;;4.20;2.78;;;25.00;59.50;;;;;;5006982;28;20969;-55
2023/08/23 09:27:00;;;;;;;3.15;2.50;;;25.00;59.40;;;;;;5000331;28;20017;-54
2023/08/23 09:29:26;;;;;;;3.35;2.40;;;25.00;59.30;;;;;;5009479;28;20036;-53
2023/08/23 09:31:53;;;;;;;5.40;2.75;;;24.90;59.10;;;;;;5007341;28;20042;-53
2023/08/23 09:34:18;;;;;;;3.13;2.30;;;24.90;59.30;;;;;;5012132;28;20397;-54
2023/08/23 09:36:44;;;;;;;3.40;2.70;;;24.80;59.60;;;;;;5007033;28;20072;-53
2023/08/23 09:39:11;;;;;;;2.92;2.50;;;24.80;59.70;;;;;;5007037;28;20017;-52
2023/08/23 09:41:41;;;;;;;2.72;2.38;;;24.80;59.70;;;;;;5001286;28;20429;-53
2023/08/23 09:44:08;;;;;;;2.85;2.30;;;24.70;59.70;;;;;;5002738;28;20033;-52
2023/08/23 09:46:41;;;;;;;4.18;2.70;;;24.70;59.70;;;;;;5009832;28;20053;-54
2023/08/23 09:49:08;;;;;;;5.63;2.90;;;24.70;59.70;;;;;;5004966;28;20494;-51
2023/08/23 09:51:37;;;;;;;4.15;2.67;;;24.60;59.90;;;;;;5005795;28;20037;-53
2023/08/23 09:54:24;;;;;;;4.07;2.73;;;24.70;59.90;;;;;;5002760;28;20028;-52
2023/08/23 09:56:50;;;;;;;3.67;2.30;;;24.70;59.70;;;;;;5005613;28;20108;-54
2023/08/23 09:59:17;;;;;;;4.18;2.70;;;24.60;59.80;;;;;;4990513;28;20353;-52
2023/08/23 10:01:44;;;;;;;3.30;2.35;;;24.60;59.60;;;;;;4989280;28;20096;-54
2023/08/23 10:04:10;;;;;;;3.55;2.15;;;24.60;58.90;;;;;;4995239;28;20394;-54
2023/08/23 10:06:36;;;;;;;3.55;2.28;;;24.60;58.80;;;;;;5000102;28;20038;-52
2023/08/23 10:09:03;;;;;;;2.50;2.30;;;24.60;58.70;;;;;;5002682;28;20038;-54
2023/08/23 10:11:29;;;;;;;4.47;3.15;;;24.60;58.80;;;;;;5008709;28;20034;-53
2023/08/23 10:13:58;;;;;;;2.83;2.47;;;24.60;59.00;;;;;;5001493;28;20162;-55
2023/08/23 10:16:26;;;;;;;2.90;2.55;;;24.60;58.90;;;;;;5005334;28;20057;-53
2023/08/23 10:18:52;;;;;;;3.60;2.65;;;24.60;58.90;;;;;;5003923;28;20033;-52
2023/08/23 10:21:18;;;;;;;5.60;2.78;;;24.60;58.80;;;;;;5003151;28;20069;-53
2023/08/23 10:23:44;;;;;;;3.75;2.53;;;24.60;59.00;;;;;;5007713;28;20116;-55
2023/08/23 10:26:18;;;;;;;3.53;2.70;;;24.60;59.00;;;;;;5003063;28;20829;-53
2023/08/23 10:28:53;;;;;;;4.15;2.28;;;24.60;58.70;;;;;;5006108;28;20045;-54
2023/08/23 10:31:25;;;;;;;4.65;2.45;;;24.60;58.40;;;;;;4999062;28;20057;-54
2023/08/23 10:33:56;;;;;;;4.07;2.67;;;24.60;58.60;;;;;;5004961;28;20423;-54
2023/08/23 10:36:29;;;;;;;;;;;24.60;58.50;;;;;;5014796;28;20092;-54
2023/08/23 10:38:58;;;;;;;3.97;2.53;;;24.50;58.90;;;;;;5006098;28;19920;-53
2023/08/23 10:41:25;;;;;;;3.20;2.50;;;24.60;59.40;;;;;;5000710;28;20057;-53
2023/08/23 10:43:52;;;;;;;3.58;2.40;;;24.60;59.50;;;;;;5000966;28;20033;-55
2023/08/23 10:46:21;;;;;;;5.13;2.60;;;24.60;59.50;;;;;;5006046;28;20084;-54
2023/08/23 10:48:48;;;;;;;3.38;2.58;;;24.60;59.50;;;;;;5001348;28;20034;-54
2023/08/23 10:51:16;;;;;;;2.60;2.40;;;24.60;59.30;;;;;;5003561;28;20026;-53
2023/08/23 10:53:42;;;;;;;3.03;2.35;;;24.60;59.30;;;;;;5009843;28;20037;-53
2023/08/23 10:56:10;;;;;;;2.88;2.58;;;24.60;59.10;;;;;;5005216;28;20549;-52
2023/08/23 10:58:36;;;;;;;2.65;2.40;;;24.60;59.40;;;;;;5002789;28;20419;-52
2023/08/23 11:01:02;;;;;;;3.00;2.47;;;24.60;59.30;;;;;;5002923;28;20052;-53
2023/08/23 11:03:29;;;;;;;2.92;2.35;;;24.60;59.50;;;;;;5003957;28;20048;-55
2023/08/23 11:05:55;;;;;;;3.20;2.60;;;24.60;59.50;;;;;;5003495;28;20034;-51
2023/08/23 11:08:22;;;;;;;3.65;2.40;;;24.70;59.50;;;;;;5001405;28;20045;-52
2023/08/23 11:10:48;;;;;;;5.68;2.78;;;24.60;59.40;;;;;;5009107;28;20041;-54
2023/08/23 11:13:13;;;;;;;2.72;2.35;;;24.70;59.30;;;;;;5007885;28;20037;-54
2023/08/23 11:15:43;;;;;;;3.50;2.47;;;24.70;59.20;;;;;;5000959;28;21834;-52
2023/08/23 11:18:10;;;;;;;4.70;2.50;;;24.70;60.10;;;;;;5001894;28;20040;-52
2023/08/23 11:20:36;;;;;;;2.72;2.50;;;24.70;59.90;;;;;;5003575;28;20021;-50
2023/08/23 11:23:02;;;;;;;2.80;2.38;;;24.80;59.50;;;;;;5005040;28;20108;-51
2023/08/23 11:25:28;;;;;;;2.78;2.40;;;24.80;59.70;;;;;;5009133;28;20124;-50
2023/08/23 11:27:53;;;;;;;4.53;2.40;;;24.70;59.60;;;;;;5006811;28;20062;-53
2023/08/23 11:30:22;;;;;;;2.78;2.30;;;24.80;59.70;;;;;;4995548;28;20166;-50
2023/08/23 11:32:48;;;;;;;2.83;2.40;;;24.80;59.80;;;;;;5010750;28;20029;-52
2023/08/23 11:35:16;;;;;;;3.30;2.45;;;24.80;60.10;;;;;;5005025;28;20026;-51
2023/08/23 11:37:42;;;;;;;3.60;2.78;;;24.80;60.10;;;;;;5007256;28;20033;-53
2023/08/23 11:40:10;;;;;;;3.45;2.50;;;24.80;60.00;;;;;;5004630;28;20470;-53
2023/08/23 11:42:36;;;;;;;3.60;2.40;;;24.90;59.80;;;;;;5004488;28;20573;-53
2023/08/23 11:45:06;;;;;;;3.25;2.22;;;24.90;59.50;;;;;;5006036;28;20045;-53
2023/08/23 11:47:35;;;;;;;4.07;2.38;;;24.90;59.20;;;;;;5003174;28;20022;-54
2023/08/23 11:50:02;;;;;;;2.88;2.25;;;24.90;59.60;;;;;;4994867;28;20034;-53
2023/08/23 11:52:31;;;;;;;3.20;2.22;;;24.90;59.60;;;;;;4995696;28;20037;-53
2023/08/23 11:54:58;;;;;;;5.10;2.42;;;24.90;59.30;;;;;;4996898;28;20105;-52
2023/08/23 11:57:24;;;;;;;5.15;2.42;;;24.90;59.30;;;;;;4994897;28;20046;-54
2023/08/23 11:59:50;;;;;;;3.60;2.60;;;24.90;59.20;;;;;;4996377;28;22227;-55
2023/08/23 12:02:15;;;;;;;2.83;2.38;;;24.90;59.30;;;;;;4997866;28;20018;-54
2023/08/23 12:04:42;;;;;;;3.03;2.63;;;24.90;59.40;;;;;;5002422;28;20378;-52
2023/08/23 12:07:08;;;;;;;2.67;2.40;;;24.90;59.30;;;;;;5007087;28;20108;-55
2023/08/23 12:09:34;;;;;;;2.85;2.50;;;24.90;59.40;;;;;;4997223;28;20444;-54
2023/08/23 12:12:00;;;;;;;3.20;2.58;;;24.90;59.40;;;;;;5000954;28;20022;-52
2023/08/23 12:14:28;;;;;;;3.35;2.30;;;24.90;59.60;;;;;;4999529;28;20030;-54
2023/08/23 12:16:54;;;;;;;2.58;2.30;;;24.90;59.50;;;;;;4997171;28;20018;-51
2023/08/23 12:19:20;;;;;;;3.20;2.13;;;24.80;59.30;;;;;;4997828;28;20022;-52
2023/08/23 12:21:46;;;;;;;3.88;2.35;;;24.90;59.10;;;;;;5002853;28;20045;-53
2023/08/23 12:24:11;;;;;;;4.32;2.45;;;24.80;59.10;;;;;;5001133;28;20477;-53
2023/08/23 12:26:37;;;;;;;2.78;2.30;;;24.90;59.20;;;;;;4998203;28;20808;-55
2023/08/23 12:29:03;;;;;;;2.60;2.35;;;24.80;58.90;;;;;;4998863;28;20061;-53
2023/08/23 12:31:29;;;;;;;5.72;2.65;;;24.90;59.00;;;;;;4998998;28;20030;-53
2023/08/23 12:33:55;;;;;;;3.95;2.40;;;24.90;59.10;;;;;;4995692;28;20671;-54
2023/08/23 12:36:20;;;;;;;3.13;2.63;;;24.90;59.20;;;;;;4992146;28;20109;-54
2023/08/23 12:38:46;;;;;;;2.95;2.20;;;24.90;59.20;;;;;;4995252;28;20030;-54
2023/08/23 12:41:12;;;;;;;3.25;2.40;;;24.90;59.50;;;;;;5002161;28;20064;-54
2023/08/23 12:43:39;;;;;;;2.60;2.40;;;24.90;59.40;;;;;;5009134;28;20057;-55
2023/08/23 12:46:05;;;;;;;2.85;2.50;;;24.90;59.40;;;;;;5000372;28;20478;-52